sensor_id;sensor_type;location;lat;lon;timestamp;temperature;humidity
5457;DHT22;2751;49.802;9.944;2022-11-21T00:01:15;6.80;99.90
5457;DHT22;2751;49.802;9.944;2022-11-21T00:03:42;6.80;99.90
5457;DHT22;2751;49.802;9.944;2022-11-21T00:06:09;6.80;99.90
5457;DHT22;2751;49.802;9.944;2022-11-21T00:08:37;7.20;99.90
5457;DHT22;2751;49.802;9.944;2022-11-21T00:11:04;6.80;99.90
5457;DHT22;2751;49.802;9.944;2022-11-21T00:13:31;7.20;99.90
5457;DHT22;2751;49.802;9.944;2022-11-21T00:16:02;6.80;99.90
5457;DHT22;2751;49.802;9.944;2022-11-21T00:18:29;6.80;99.90
5457;DHT22;2751;49.802;9.944;2022-11-21T00:21:03;6.80;99.90
5457;DHT22;2751;49.802;9.944;2022-11-21T00:23:31;6.80;99.90
5457;DHT22;2751;49.802;9.944;2022-11-21T00:26:03;6.80;99.90
5457;DHT22;2751;49.802;9.944;2022-11-21T00:28:29;7.00;99.90
5457;DHT22;2751;49.802;9.944;2022-11-21T00:30:56;6.90;99.90
5457;DHT22;2751;49.802;9.944;2022-11-21T00:33:23;6.80;99.90
5457;DHT22;2751;49.802;9.944;2022-11-21T00:35:50;6.80;99.90
5457;DHT22;2751;49.802;9.944;2022-11-21T00:38:17;6.70;99.90
5457;DHT22;2751;49.802;9.944;2022-11-21T00:40:44;6.70;99.90
5457;DHT22;2751;49.802;9.944;2022-11-21T00:43:12;6.70;99.90
5457;DHT22;2751;49.802;9.944;2022-11-21T00:45:39;6.60;99.90
5457;DHT22;2751;49.802;9.944;2022-11-21T00:48:06;6.60;99.90
5457;DHT22;2751;49.802;9.944;2022-11-21T00:50:33;6.60;99.90
5457;DHT22;2751;49.802;9.944;2022-11-21T00:53:00;7.00;99.90
5457;DHT22;2751;49.802;9.944;2022-11-21T00:55:27;6.70;99.90
5457;DHT22;2751;49.802;9.944;2022-11-21T00:57:54;6.70;99.90
5457;DHT22;2751;49.802;9.944;2022-11-21T01:00:22;6.70;99.90
5457;DHT22;2751;49.802;9.944;2022-11-21T01:02:49;6.70;99.90
5457;DHT22;2751;49.802;9.944;2022-11-21T01:05:16;7.20;99.90
5457;DHT22;2751;49.802;9.944;2022-11-21T01:07:43;6.80;99.90
5457;DHT22;2751;49.802;9.944;2022-11-21T01:10:10;6.80;99.90
5457;DHT22;2751;49.802;9.944;2022-11-21T01:12:37;6.80;99.90
5457;DHT22;2751;49.802;9.944;2022-11-21T01:15:05;7.00;99.90
5457;DHT22;2751;49.802;9.944;2022-11-21T01:17:33;6.70;99.90
5457;DHT22;2751;49.802;9.944;2022-11-21T01:20:00;6.70;99.90
5457;DHT22;2751;49.802;9.944;2022-11-21T01:22:27;6.70;99.90
5457;DHT22;2751;49.802;9.944;2022-11-21T01:24:54;6.60;99.90
5457;DHT22;2751;49.802;9.944;2022-11-21T01:27:21;6.60;99.90
5457;DHT22;2751;49.802;9.944;2022-11-21T01:29:48;6.60;99.90
5457;DHT22;2751;49.802;9.944;2022-11-21T01:32:17;6.60;99.90
5457;DHT22;2751;49.802;9.944;2022-11-21T01:34:45;6.90;99.90
5457;DHT22;2751;49.802;9.944;2022-11-21T01:37:12;6.50;99.90
5457;DHT22;2751;49.802;9.944;2022-11-21T01:39:38;6.50;99.90
5457;DHT22;2751;49.802;9.944;2022-11-21T01:42:05;6.50;99.90
5457;DHT22;2751;49.802;9.944;2022-11-21T01:44:48;6.50;99.90
5457;DHT22;2751;49.802;9.944;2022-11-21T01:47:15;6.50;99.90
5457;DHT22;2751;49.802;9.944;2022-11-21T01:49:44;6.50;99.90
5457;DHT22;2751;49.802;9.944;2022-11-21T01:52:15;6.50;99.90
5457;DHT22;2751;49.802;9.944;2022-11-21T01:54:46;6.50;99.90
5457;DHT22;2751;49.802;9.944;2022-11-21T01:57:21;6.50;99.90
5457;DHT22;2751;49.802;9.944;2022-11-21T01:59:53;6.50;99.90
5457;DHT22;2751;49.802;9.944;2022-11-21T02:02:24;6.90;99.90
5457;DHT22;2751;49.802;9.944;2022-11-21T02:04:53;6.70;99.90
5457;DHT22;2751;49.802;9.944;2022-11-21T02:07:22;6.50;99.90
5457;DHT22;2751;49.802;9.944;2022-11-21T02:09:52;6.40;99.90
5457;DHT22;2751;49.802;9.944;2022-11-21T02:12:23;6.10;99.90
5457;DHT22;2751;49.802;9.944;2022-11-21T02:14:52;6.40;99.90
5457;DHT22;2751;49.802;9.944;2022-11-21T02:17:20;6.60;99.90
5457;DHT22;2751;49.802;9.944;2022-11-21T02:19:51;6.40;99.90
5457;DHT22;2751;49.802;9.944;2022-11-21T02:22:26;6.90;99.90
5457;DHT22;2751;49.802;9.944;2022-11-21T02:25:04;6.50;99.90
5457;DHT22;2751;49.802;9.944;2022-11-21T02:27:32;6.50;99.90
5457;DHT22;2751;49.802;9.944;2022-11-21T02:30:01;6.50;99.90
5457;DHT22;2751;49.802;9.944;2022-11-21T02:32:32;6.50;99.90
5457;DHT22;2751;49.802;9.944;2022-11-21T02:35:00;6.50;99.90
5457;DHT22;2751;49.802;9.944;2022-11-21T02:37:27;6.50;99.90
5457;DHT22;2751;49.802;9.944;2022-11-21T02:39:55;6.50;99.90
5457;DHT22;2751;49.802;9.944;2022-11-21T02:42:29;6.70;99.90
5457;DHT22;2751;49.802;9.944;2022-11-21T02:45:13;6.50;99.90
5457;DHT22;2751;49.802;9.944;2022-11-21T02:47:43;6.50;99.90
5457;DHT22;2751;49.802;9.944;2022-11-21T02:50:13;6.50;99.90
5457;DHT22;2751;49.802;9.944;2022-11-21T02:52:40;6.60;99.90
5457;DHT22;2751;49.802;9.944;2022-11-21T02:55:08;6.60;99.90
5457;DHT22;2751;49.802;9.944;2022-11-21T02:57:37;6.60;99.90
5457;DHT22;2751;49.802;9.944;2022-11-21T03:00:05;6.70;99.90
5457;DHT22;2751;49.802;9.944;2022-11-21T03:02:32;6.70;99.90
5457;DHT22;2751;49.802;9.944;2022-11-21T03:05:00;6.70;99.90
5457;DHT22;2751;49.802;9.944;2022-11-21T03:07:27;6.70;99.90
5457;DHT22;2751;49.802;9.944;2022-11-21T03:09:54;6.70;99.90
5457;DHT22;2751;49.802;9.944;2022-11-21T03:12:21;6.90;99.90
5457;DHT22;2751;49.802;9.944;2022-11-21T03:14:49;6.80;99.90
5457;DHT22;2751;49.802;9.944;2022-11-21T03:17:16;7.00;99.90
5457;DHT22;2751;49.802;9.944;2022-11-21T03:19:43;6.80;99.90
5457;DHT22;2751;49.802;9.944;2022-11-21T03:22:11;6.80;99.90
5457;DHT22;2751;49.802;9.944;2022-11-21T03:24:38;6.90;99.90
5457;DHT22;2751;49.802;9.944;2022-11-21T03:27:05;6.90;99.90
5457;DHT22;2751;49.802;9.944;2022-11-21T03:29:32;7.20;99.90
5457;DHT22;2751;49.802;9.944;2022-11-21T03:32:00;6.90;99.90
5457;DHT22;2751;49.802;9.944;2022-11-21T03:34:27;6.90;99.90
5457;DHT22;2751;49.802;9.944;2022-11-21T03:36:54;6.90;99.90
5457;DHT22;2751;49.802;9.944;2022-11-21T03:39:21;6.90;99.90
5457;DHT22;2751;49.802;9.944;2022-11-21T03:41:48;6.90;99.90
5457;DHT22;2751;49.802;9.944;2022-11-21T03:44:15;6.90;99.90
5457;DHT22;2751;49.802;9.944;2022-11-21T03:46:43;7.00;99.90
5457;DHT22;2751;49.802;9.944;2022-11-21T03:49:12;7.00;99.90
5457;DHT22;2751;49.802;9.944;2022-11-21T03:51:41;7.00;99.90
5457;DHT22;2751;49.802;9.944;2022-11-21T03:54:09;7.00;99.90
5457;DHT22;2751;49.802;9.944;2022-11-21T03:56:36;7.00;99.90
5457;DHT22;2751;49.802;9.944;2022-11-21T03:59:04;7.00;99.90
5457;DHT22;2751;49.802;9.944;2022-11-21T04:01:32;7.00;99.90
5457;DHT22;2751;49.802;9.944;2022-11-21T04:03:58;7.00;99.90
5457;DHT22;2751;49.802;9.944;2022-11-21T04:06:27;7.00;99.90
5457;DHT22;2751;49.802;9.944;2022-11-21T04:08:55;7.00;99.90
5457;DHT22;2751;49.802;9.944;2022-11-21T04:11:22;7.00;99.90
5457;DHT22;2751;49.802;9.944;2022-11-21T04:13:49;7.00;99.90
5457;DHT22;2751;49.802;9.944;2022-11-21T04:16:16;7.10;99.90
5457;DHT22;2751;49.802;9.944;2022-11-21T04:18:43;7.10;99.90
5457;DHT22;2751;49.802;9.944;2022-11-21T04:21:10;7.10;99.90
5457;DHT22;2751;49.802;9.944;2022-11-21T04:23:39;7.10;99.90
5457;DHT22;2751;49.802;9.944;2022-11-21T04:26:05;7.10;99.90
5457;DHT22;2751;49.802;9.944;2022-11-21T04:28:32;7.10;99.90
5457;DHT22;2751;49.802;9.944;2022-11-21T04:31:03;7.10;99.90
5457;DHT22;2751;49.802;9.944;2022-11-21T04:33:31;7.20;99.90
5457;DHT22;2751;49.802;9.944;2022-11-21T04:35:59;7.10;99.90
5457;DHT22;2751;49.802;9.944;2022-11-21T04:38:26;7.00;99.90
5457;DHT22;2751;49.802;9.944;2022-11-21T04:40:54;7.30;99.90
5457;DHT22;2751;49.802;9.944;2022-11-21T04:43:21;7.10;99.90
5457;DHT22;2751;49.802;9.944;2022-11-21T04:45:48;7.00;99.90
5457;DHT22;2751;49.802;9.944;2022-11-21T04:48:15;7.40;99.90
5457;DHT22;2751;49.802;9.944;2022-11-21T04:50:42;7.00;99.90
5457;DHT22;2751;49.802;9.944;2022-11-21T04:53:08;7.20;99.90
5457;DHT22;2751;49.802;9.944;2022-11-21T04:55:35;7.10;99.90
5457;DHT22;2751;49.802;9.944;2022-11-21T04:58:04;7.10;99.90
5457;DHT22;2751;49.802;9.944;2022-11-21T05:00:31;7.10;99.90
5457;DHT22;2751;49.802;9.944;2022-11-21T05:03:01;7.40;99.90
5457;DHT22;2751;49.802;9.944;2022-11-21T05:05:29;7.20;99.90
5457;DHT22;2751;49.802;9.944;2022-11-21T05:07:56;7.20;99.90
5457;DHT22;2751;49.802;9.944;2022-11-21T05:10:23;7.20;99.90
5457;DHT22;2751;49.802;9.944;2022-11-21T05:12:56;7.70;99.90
5457;DHT22;2751;49.802;9.944;2022-11-21T05:15:41;7.50;99.90
5457;DHT22;2751;49.802;9.944;2022-11-21T05:18:08;7.50;99.90
5457;DHT22;2751;49.802;9.944;2022-11-21T05:20:35;7.30;99.90
5457;DHT22;2751;49.802;9.944;2022-11-21T05:23:02;7.30;99.90
5457;DHT22;2751;49.802;9.944;2022-11-21T05:25:29;7.30;99.90
5457;DHT22;2751;49.802;9.944;2022-11-21T05:27:56;7.70;99.90
5457;DHT22;2751;49.802;9.944;2022-11-21T05:30:23;7.50;99.90
5457;DHT22;2751;49.802;9.944;2022-11-21T05:32:51;7.30;99.90
5457;DHT22;2751;49.802;9.944;2022-11-21T05:35:18;7.30;99.90
5457;DHT22;2751;49.802;9.944;2022-11-21T05:37:45;7.30;99.90
5457;DHT22;2751;49.802;9.944;2022-11-21T05:40:12;7.30;99.90
5457;DHT22;2751;49.802;9.944;2022-11-21T05:42:39;7.30;99.90
5457;DHT22;2751;49.802;9.944;2022-11-21T05:45:23;7.30;99.90
5457;DHT22;2751;49.802;9.944;2022-11-21T05:47:51;7.30;99.90
5457;DHT22;2751;49.802;9.944;2022-11-21T05:50:18;7.30;99.90
5457;DHT22;2751;49.802;9.944;2022-11-21T05:52:45;7.30;99.90
5457;DHT22;2751;49.802;9.944;2022-11-21T05:55:12;7.30;99.90
5457;DHT22;2751;49.802;9.944;2022-11-21T05:57:39;7.20;99.90
5457;DHT22;2751;49.802;9.944;2022-11-21T06:00:07;7.20;99.90
5457;DHT22;2751;49.802;9.944;2022-11-21T06:02:34;7.20;99.90
5457;DHT22;2751;49.802;9.944;2022-11-21T06:05:20;6.70;99.90
5457;DHT22;2751;49.802;9.944;2022-11-21T06:07:46;7.30;99.90
5457;DHT22;2751;49.802;9.944;2022-11-21T06:10:13;7.00;99.90
5457;DHT22;2751;49.802;9.944;2022-11-21T06:12:40;7.00;99.90
5457;DHT22;2751;49.802;9.944;2022-11-21T06:15:08;7.00;99.90
5457;DHT22;2751;49.802;9.944;2022-11-21T06:17:35;7.00;99.90
5457;DHT22;2751;49.802;9.944;2022-11-21T06:20:02;7.00;99.90
5457;DHT22;2751;49.802;9.944;2022-11-21T06:22:30;7.00;99.90
5457;DHT22;2751;49.802;9.944;2022-11-21T06:24:57;7.00;99.90
5457;DHT22;2751;49.802;9.944;2022-11-21T06:27:24;7.00;99.90
5457;DHT22;2751;49.802;9.944;2022-11-21T06:29:51;7.40;99.90
5457;DHT22;2751;49.802;9.944;2022-11-21T06:32:18;7.00;99.90
5457;DHT22;2751;49.802;9.944;2022-11-21T06:34:44;7.10;99.90
5457;DHT22;2751;49.802;9.944;2022-11-21T06:37:11;7.30;99.90
5457;DHT22;2751;49.802;9.944;2022-11-21T06:39:40;7.10;99.90
5457;DHT22;2751;49.802;9.944;2022-11-21T06:42:06;7.10;99.90
5457;DHT22;2751;49.802;9.944;2022-11-21T06:44:33;7.10;99.90
5457;DHT22;2751;49.802;9.944;2022-11-21T06:47:00;7.10;99.90
5457;DHT22;2751;49.802;9.944;2022-11-21T06:49:29;7.10;99.90
5457;DHT22;2751;49.802;9.944;2022-11-21T06:51:56;7.10;99.90
5457;DHT22;2751;49.802;9.944;2022-11-21T06:54:23;7.10;99.90
5457;DHT22;2751;49.802;9.944;2022-11-21T06:56:52;7.10;99.90
5457;DHT22;2751;49.802;9.944;2022-11-21T06:59:20;7.00;99.90
5457;DHT22;2751;49.802;9.944;2022-11-21T07:01:46;7.10;99.90
5457;DHT22;2751;49.802;9.944;2022-11-21T07:04:13;7.20;99.90
5457;DHT22;2751;49.802;9.944;2022-11-21T07:06:40;7.20;99.90
5457;DHT22;2751;49.802;9.944;2022-11-21T07:09:07;7.30;99.90
5457;DHT22;2751;49.802;9.944;2022-11-21T07:11:34;7.20;99.90
5457;DHT22;2751;49.802;9.944;2022-11-21T07:14:02;7.20;99.90
5457;DHT22;2751;49.802;9.944;2022-11-21T07:16:29;7.10;99.90
5457;DHT22;2751;49.802;9.944;2022-11-21T07:18:57;7.20;99.90
5457;DHT22;2751;49.802;9.944;2022-11-21T07:21:25;7.20;99.90
5457;DHT22;2751;49.802;9.944;2022-11-21T07:23:52;7.50;99.90
5457;DHT22;2751;49.802;9.944;2022-11-21T07:26:18;7.30;99.90
5457;DHT22;2751;49.802;9.944;2022-11-21T07:28:45;7.10;99.90
5457;DHT22;2751;49.802;9.944;2022-11-21T07:31:14;7.40;99.90
5457;DHT22;2751;49.802;9.944;2022-11-21T07:33:41;7.20;99.90
5457;DHT22;2751;49.802;9.944;2022-11-21T07:36:09;7.20;99.90
5457;DHT22;2751;49.802;9.944;2022-11-21T07:38:36;7.20;99.90
5457;DHT22;2751;49.802;9.944;2022-11-21T07:41:02;7.20;99.90
5457;DHT22;2751;49.802;9.944;2022-11-21T07:43:29;7.30;99.90
5457;DHT22;2751;49.802;9.944;2022-11-21T07:45:56;7.30;99.90
5457;DHT22;2751;49.802;9.944;2022-11-21T07:48:24;7.30;99.90
5457;DHT22;2751;49.802;9.944;2022-11-21T07:50:51;7.30;99.90
5457;DHT22;2751;49.802;9.944;2022-11-21T07:53:18;7.50;99.90
5457;DHT22;2751;49.802;9.944;2022-11-21T07:55:45;7.40;99.90
5457;DHT22;2751;49.802;9.944;2022-11-21T07:58:14;7.40;99.90
5457;DHT22;2751;49.802;9.944;2022-11-21T08:00:42;7.40;99.90
5457;DHT22;2751;49.802;9.944;2022-11-21T08:03:10;7.40;99.90
5457;DHT22;2751;49.802;9.944;2022-11-21T08:05:40;7.40;99.90
5457;DHT22;2751;49.802;9.944;2022-11-21T08:08:08;7.40;99.90
5457;DHT22;2751;49.802;9.944;2022-11-21T08:10:36;7.60;99.90
5457;DHT22;2751;49.802;9.944;2022-11-21T08:13:04;7.30;99.90
5457;DHT22;2751;49.802;9.944;2022-11-21T08:15:31;7.30;99.90
5457;DHT22;2751;49.802;9.944;2022-11-21T08:18:08;7.40;99.90
5457;DHT22;2751;49.802;9.944;2022-11-21T08:20:35;7.30;99.90
5457;DHT22;2751;49.802;9.944;2022-11-21T08:23:04;7.30;99.90
5457;DHT22;2751;49.802;9.944;2022-11-21T08:25:31;7.30;99.90
5457;DHT22;2751;49.802;9.944;2022-11-21T08:27:58;7.60;99.90
5457;DHT22;2751;49.802;9.944;2022-11-21T08:30:27;7.40;99.90
5457;DHT22;2751;49.802;9.944;2022-11-21T08:32:56;7.40;99.90
5457;DHT22;2751;49.802;9.944;2022-11-21T08:35:23;7.40;99.90
5457;DHT22;2751;49.802;9.944;2022-11-21T08:37:54;7.50;99.90
5457;DHT22;2751;49.802;9.944;2022-11-21T08:40:23;7.40;99.90
5457;DHT22;2751;49.802;9.944;2022-11-21T08:42:55;7.40;99.90
5457;DHT22;2751;49.802;9.944;2022-11-21T08:45:22;7.30;99.90
5457;DHT22;2751;49.802;9.944;2022-11-21T08:47:49;7.20;99.90
5457;DHT22;2751;49.802;9.944;2022-11-21T08:50:16;7.20;99.90
5457;DHT22;2751;49.802;9.944;2022-11-21T08:52:43;7.10;99.90
5457;DHT22;2751;49.802;9.944;2022-11-21T08:55:10;7.10;99.90
5457;DHT22;2751;49.802;9.944;2022-11-21T08:57:38;7.10;99.90
5457;DHT22;2751;49.802;9.944;2022-11-21T09:00:09;7.10;99.90
5457;DHT22;2751;49.802;9.944;2022-11-21T09:02:37;7.10;99.90
5457;DHT22;2751;49.802;9.944;2022-11-21T09:05:05;7.10;99.90
5457;DHT22;2751;49.802;9.944;2022-11-21T09:07:32;7.10;99.90
5457;DHT22;2751;49.802;9.944;2022-11-21T09:09:59;7.10;99.90
5457;DHT22;2751;49.802;9.944;2022-11-21T09:12:26;7.10;99.90
5457;DHT22;2751;49.802;9.944;2022-11-21T09:14:54;7.20;99.90
5457;DHT22;2751;49.802;9.944;2022-11-21T09:17:44;7.30;99.90
5457;DHT22;2751;49.802;9.944;2022-11-21T09:20:29;7.40;99.90
5457;DHT22;2751;49.802;9.944;2022-11-21T09:22:56;7.50;99.90
5457;DHT22;2751;49.802;9.944;2022-11-21T09:25:23;7.50;99.90
5457;DHT22;2751;49.802;9.944;2022-11-21T09:27:50;7.80;99.90
5457;DHT22;2751;49.802;9.944;2022-11-21T09:30:18;7.50;99.90
5457;DHT22;2751;49.802;9.944;2022-11-21T09:32:45;7.60;99.90
5457;DHT22;2751;49.802;9.944;2022-11-21T09:35:12;7.60;99.90
5457;DHT22;2751;49.802;9.944;2022-11-21T09:37:39;7.70;99.90
5457;DHT22;2751;49.802;9.944;2022-11-21T09:40:11;7.60;99.90
5457;DHT22;2751;49.802;9.944;2022-11-21T09:43:00;7.60;99.90
5457;DHT22;2751;49.802;9.944;2022-11-21T09:45:32;7.70;99.90
5457;DHT22;2751;49.802;9.944;2022-11-21T09:48:02;7.70;99.90
5457;DHT22;2751;49.802;9.944;2022-11-21T09:50:33;7.80;99.90
5457;DHT22;2751;49.802;9.944;2022-11-21T09:53:05;7.80;99.90
5457;DHT22;2751;49.802;9.944;2022-11-21T09:55:40;8.00;99.90
5457;DHT22;2751;49.802;9.944;2022-11-21T09:58:16;8.10;99.90
5457;DHT22;2751;49.802;9.944;2022-11-21T10:00:49;8.20;99.90
5457;DHT22;2751;49.802;9.944;2022-11-21T10:03:17;8.30;99.90
5457;DHT22;2751;49.802;9.944;2022-11-21T10:05:48;8.40;99.90
5457;DHT22;2751;49.802;9.944;2022-11-21T10:08:24;8.60;99.90
5457;DHT22;2751;49.802;9.944;2022-11-21T10:10:55;8.80;99.90
5457;DHT22;2751;49.802;9.944;2022-11-21T10:13:35;8.80;99.90
5457;DHT22;2751;49.802;9.944;2022-11-21T10:16:14;8.70;99.90
5457;DHT22;2751;49.802;9.944;2022-11-21T10:18:58;8.50;99.90
5457;DHT22;2751;49.802;9.944;2022-11-21T10:24:35;8.60;99.90
5457;DHT22;2751;49.802;9.944;2022-11-21T10:27:10;8.70;99.90
5457;DHT22;2751;49.802;9.944;2022-11-21T10:29:40;8.60;99.90
5457;DHT22;2751;49.802;9.944;2022-11-21T10:32:18;8.50;99.90
5457;DHT22;2751;49.802;9.944;2022-11-21T10:34:46;8.30;99.90
5457;DHT22;2751;49.802;9.944;2022-11-21T10:37:25;8.40;99.90
5457;DHT22;2751;49.802;9.944;2022-11-21T10:39:54;8.40;99.90
5457;DHT22;2751;49.802;9.944;2022-11-21T10:42:29;8.40;99.90
5457;DHT22;2751;49.802;9.944;2022-11-21T10:44:59;8.50;99.90
5457;DHT22;2751;49.802;9.944;2022-11-21T10:47:46;8.70;99.90
5457;DHT22;2751;49.802;9.944;2022-11-21T10:50:40;8.90;99.90
5457;DHT22;2751;49.802;9.944;2022-11-21T10:53:17;8.70;99.90
5457;DHT22;2751;49.802;9.944;2022-11-21T10:56:05;8.60;99.90
5457;DHT22;2751;49.802;9.944;2022-11-21T10:58:40;8.30;99.90
5457;DHT22;2751;49.802;9.944;2022-11-21T11:01:22;8.00;99.90
5457;DHT22;2751;49.802;9.944;2022-11-21T11:04:15;7.90;99.90
5457;DHT22;2751;49.802;9.944;2022-11-21T11:06:44;7.90;99.90
5457;DHT22;2751;49.802;9.944;2022-11-21T11:09:25;7.90;99.90
5457;DHT22;2751;49.802;9.944;2022-11-21T11:11:53;8.10;99.90
5457;DHT22;2751;49.802;9.944;2022-11-21T11:14:40;7.90;99.90
5457;DHT22;2751;49.802;9.944;2022-11-21T11:17:12;7.70;99.90
5457;DHT22;2751;49.802;9.944;2022-11-21T11:19:59;7.70;99.90
5457;DHT22;2751;49.802;9.944;2022-11-21T11:22:28;7.60;99.90
5457;DHT22;2751;49.802;9.944;2022-11-21T11:24:55;7.50;99.90
5457;DHT22;2751;49.802;9.944;2022-11-21T11:27:28;7.40;99.90
5457;DHT22;2751;49.802;9.944;2022-11-21T11:29:55;7.50;99.90
5457;DHT22;2751;49.802;9.944;2022-11-21T11:32:23;7.80;99.90
5457;DHT22;2751;49.802;9.944;2022-11-21T11:34:57;7.50;99.90
5457;DHT22;2751;49.802;9.944;2022-11-21T11:37:32;7.60;99.90
5457;DHT22;2751;49.802;9.944;2022-11-21T11:40:07;8.00;99.90
5457;DHT22;2751;49.802;9.944;2022-11-21T11:43:01;7.70;99.90
5457;DHT22;2751;49.802;9.944;2022-11-21T11:46:07;7.70;99.90
5457;DHT22;2751;49.802;9.944;2022-11-21T11:48:57;7.80;99.90
5457;DHT22;2751;49.802;9.944;2022-11-21T11:51:31;7.90;99.90
5457;DHT22;2751;49.802;9.944;2022-11-21T11:54:05;8.20;99.90
5457;DHT22;2751;49.802;9.944;2022-11-21T11:56:35;8.40;99.90
5457;DHT22;2751;49.802;9.944;2022-11-21T11:59:10;8.50;99.90
5457;DHT22;2751;49.802;9.944;2022-11-21T12:01:41;8.50;99.90
5457;DHT22;2751;49.802;9.944;2022-11-21T12:04:12;8.60;99.90
5457;DHT22;2751;49.802;9.944;2022-11-21T12:06:45;8.80;99.90
5457;DHT22;2751;49.802;9.944;2022-11-21T12:09:20;9.00;99.90
5457;DHT22;2751;49.802;9.944;2022-11-21T12:11:53;9.30;99.90
5457;DHT22;2751;49.802;9.944;2022-11-21T12:14:45;9.40;99.90
5457;DHT22;2751;49.802;9.944;2022-11-21T12:17:36;9.60;99.90
5457;DHT22;2751;49.802;9.944;2022-11-21T12:20:13;9.50;99.90
5457;DHT22;2751;49.802;9.944;2022-11-21T12:22:43;9.70;99.90
5457;DHT22;2751;49.802;9.944;2022-11-21T12:25:11;9.90;99.90
5457;DHT22;2751;49.802;9.944;2022-11-21T12:27:40;10.10;99.90
5457;DHT22;2751;49.802;9.944;2022-11-21T12:33:18;9.90;99.90
5457;DHT22;2751;49.802;9.944;2022-11-21T12:38:56;9.50;99.90
5457;DHT22;2751;49.802;9.944;2022-11-21T12:41:31;9.50;99.90
5457;DHT22;2751;49.802;9.944;2022-11-21T12:44:28;9.50;99.90
5457;DHT22;2751;49.802;9.944;2022-11-21T12:47:09;9.30;99.90
5457;DHT22;2751;49.802;9.944;2022-11-21T12:49:42;9.30;99.90
5457;DHT22;2751;49.802;9.944;2022-11-21T12:52:38;9.30;99.90
5457;DHT22;2751;49.802;9.944;2022-11-21T12:55:35;9.20;99.90
5457;DHT22;2751;49.802;9.944;2022-11-21T12:58:22;9.20;99.90
5457;DHT22;2751;49.802;9.944;2022-11-21T13:01:03;9.30;99.90
5457;DHT22;2751;49.802;9.944;2022-11-21T13:03:43;9.30;99.90
5457;DHT22;2751;49.802;9.944;2022-11-21T13:06:15;9.30;99.90
5457;DHT22;2751;49.802;9.944;2022-11-21T13:08:47;9.30;99.90
5457;DHT22;2751;49.802;9.944;2022-11-21T13:11:26;9.60;99.90
5457;DHT22;2751;49.802;9.944;2022-11-21T13:14:16;9.70;99.90
5457;DHT22;2751;49.802;9.944;2022-11-21T13:16:48;9.60;99.90
5457;DHT22;2751;49.802;9.944;2022-11-21T13:19:26;9.50;99.90
5457;DHT22;2751;49.802;9.944;2022-11-21T13:21:55;9.50;99.90
5457;DHT22;2751;49.802;9.944;2022-11-21T13:24:53;9.40;99.90
5457;DHT22;2751;49.802;9.944;2022-11-21T13:27:28;9.20;99.90
5457;DHT22;2751;49.802;9.944;2022-11-21T13:30:17;9.20;99.90
5457;DHT22;2751;49.802;9.944;2022-11-21T13:32:45;9.30;99.90
5457;DHT22;2751;49.802;9.944;2022-11-21T13:38:28;9.40;99.90
5457;DHT22;2751;49.802;9.944;2022-11-21T13:40:55;9.50;99.90
5457;DHT22;2751;49.802;9.944;2022-11-21T13:43:41;9.50;99.90
5457;DHT22;2751;49.802;9.944;2022-11-21T13:46:08;9.40;99.90
5457;DHT22;2751;49.802;9.944;2022-11-21T13:48:52;9.40;99.90
5457;DHT22;2751;49.802;9.944;2022-11-21T13:54:35;9.30;99.90
5457;DHT22;2751;49.802;9.944;2022-11-21T13:57:16;9.40;99.90
5457;DHT22;2751;49.802;9.944;2022-11-21T14:00:02;9.40;99.90
5457;DHT22;2751;49.802;9.944;2022-11-21T14:02:56;9.50;99.90
5457;DHT22;2751;49.802;9.944;2022-11-21T14:05:47;9.50;99.90
5457;DHT22;2751;49.802;9.944;2022-11-21T14:08:21;9.40;99.90
5457;DHT22;2751;49.802;9.944;2022-11-21T14:10:49;9.30;99.90
5457;DHT22;2751;49.802;9.944;2022-11-21T14:13:27;9.20;99.90
5457;DHT22;2751;49.802;9.944;2022-11-21T14:16:10;9.00;99.90
5457;DHT22;2751;49.802;9.944;2022-11-21T14:18:44;8.80;99.90
5457;DHT22;2751;49.802;9.944;2022-11-21T14:21:19;8.70;99.90
5457;DHT22;2751;49.802;9.944;2022-11-21T14:23:47;8.60;99.90
5457;DHT22;2751;49.802;9.944;2022-11-21T14:26:16;8.50;99.90
5457;DHT22;2751;49.802;9.944;2022-11-21T14:28:44;8.50;99.90
5457;DHT22;2751;49.802;9.944;2022-11-21T14:31:13;8.40;99.90
5457;DHT22;2751;49.802;9.944;2022-11-21T14:33:41;8.40;99.90
5457;DHT22;2751;49.802;9.944;2022-11-21T14:36:12;8.30;99.90
5457;DHT22;2751;49.802;9.944;2022-11-21T14:38:43;8.20;99.90
5457;DHT22;2751;49.802;9.944;2022-11-21T14:41:23;8.20;99.90
5457;DHT22;2751;49.802;9.944;2022-11-21T14:44:00;8.40;99.90
5457;DHT22;2751;49.802;9.944;2022-11-21T14:46:33;8.00;99.90
5457;DHT22;2751;49.802;9.944;2022-11-21T14:49:25;8.20;99.90
5457;DHT22;2751;49.802;9.944;2022-11-21T14:52:14;7.90;99.90
5457;DHT22;2751;49.802;9.944;2022-11-21T14:54:48;7.90;99.90
5457;DHT22;2751;49.802;9.944;2022-11-21T14:57:21;7.80;99.90
5457;DHT22;2751;49.802;9.944;2022-11-21T14:59:50;7.80;99.90
5457;DHT22;2751;49.802;9.944;2022-11-21T15:02:20;7.80;99.90
5457;DHT22;2751;49.802;9.944;2022-11-21T15:04:58;7.80;99.90
5457;DHT22;2751;49.802;9.944;2022-11-21T15:07:27;7.70;99.90
5457;DHT22;2751;49.802;9.944;2022-11-21T15:10:02;7.60;99.90
5457;DHT22;2751;49.802;9.944;2022-11-21T15:12:34;7.60;99.90
5457;DHT22;2751;49.802;9.944;2022-11-21T15:15:05;7.50;99.90
5457;DHT22;2751;49.802;9.944;2022-11-21T15:17:37;7.40;99.90
5457;DHT22;2751;49.802;9.944;2022-11-21T15:20:15;7.30;99.90
5457;DHT22;2751;49.802;9.944;2022-11-21T15:22:45;7.30;99.90
5457;DHT22;2751;49.802;9.944;2022-11-21T15:25:16;7.20;99.90
5457;DHT22;2751;49.802;9.944;2022-11-21T15:27:44;7.20;99.90
5457;DHT22;2751;49.802;9.944;2022-11-21T15:30:28;7.10;99.90
5457;DHT22;2751;49.802;9.944;2022-11-21T15:33:05;7.00;99.90
5457;DHT22;2751;49.802;9.944;2022-11-21T15:38:31;6.90;99.90
5457;DHT22;2751;49.802;9.944;2022-11-21T15:41:04;6.70;99.90
5457;DHT22;2751;49.802;9.944;2022-11-21T15:43:41;6.30;99.90
5457;DHT22;2751;49.802;9.944;2022-11-21T15:46:14;6.60;99.90
5457;DHT22;2751;49.802;9.944;2022-11-21T15:48:44;6.50;99.90
5457;DHT22;2751;49.802;9.944;2022-11-21T15:51:11;6.40;99.90
5457;DHT22;2751;49.802;9.944;2022-11-21T15:53:38;6.40;99.90
5457;DHT22;2751;49.802;9.944;2022-11-21T15:56:05;6.30;99.90
5457;DHT22;2751;49.802;9.944;2022-11-21T15:58:32;6.20;99.90
5457;DHT22;2751;49.802;9.944;2022-11-21T16:00:59;6.10;99.90
5457;DHT22;2751;49.802;9.944;2022-11-21T16:03:26;6.10;99.90
5457;DHT22;2751;49.802;9.944;2022-11-21T16:05:55;6.00;99.90
5457;DHT22;2751;49.802;9.944;2022-11-21T16:08:22;5.90;99.90
5457;DHT22;2751;49.802;9.944;2022-11-21T16:10:48;5.90;99.90
5457;DHT22;2751;49.802;9.944;2022-11-21T16:13:15;6.10;99.90
5457;DHT22;2751;49.802;9.944;2022-11-21T16:15:42;6.10;99.90
5457;DHT22;2751;49.802;9.944;2022-11-21T16:18:09;5.80;99.90
5457;DHT22;2751;49.802;9.944;2022-11-21T16:20:36;5.70;99.90
5457;DHT22;2751;49.802;9.944;2022-11-21T16:23:04;5.90;99.90
5457;DHT22;2751;49.802;9.944;2022-11-21T16:25:31;5.80;99.90
5457;DHT22;2751;49.802;9.944;2022-11-21T16:27:58;5.60;99.90
5457;DHT22;2751;49.802;9.944;2022-11-21T16:30:25;5.90;99.90
5457;DHT22;2751;49.802;9.944;2022-11-21T16:32:52;5.80;99.90
5457;DHT22;2751;49.802;9.944;2022-11-21T16:35:21;5.50;99.90
5457;DHT22;2751;49.802;9.944;2022-11-21T16:37:48;5.50;99.90
5457;DHT22;2751;49.802;9.944;2022-11-21T16:40:18;5.70;99.90
5457;DHT22;2751;49.802;9.944;2022-11-21T16:42:44;5.40;99.90
5457;DHT22;2751;49.802;9.944;2022-11-21T16:45:11;5.40;99.90
5457;DHT22;2751;49.802;9.944;2022-11-21T16:47:38;5.60;99.90
5457;DHT22;2751;49.802;9.944;2022-11-21T16:50:05;5.30;99.90
5457;DHT22;2751;49.802;9.944;2022-11-21T16:52:33;5.30;99.90
5457;DHT22;2751;49.802;9.944;2022-11-21T16:55:01;5.50;99.90
5457;DHT22;2751;49.802;9.944;2022-11-21T16:57:32;5.20;99.90
5457;DHT22;2751;49.802;9.944;2022-11-21T16:59:59;5.20;99.90